Terminal Aerodrome Forecast
Issued by NWS Mobile, AL

Home | Current Version | Previous Version | Text Only | Print | Product List | Glossary On
Versions: 1 2 3 4 5 6 7 8 9 10 11 12 13 14 15 16 17 18 19 20 21 22 23 24 25 26 27 28
000
FTUS44 KMOB 292354
TAFPNS
TAF
KPNS 292354Z 3000/3024 27005KT P6SM SCT040 BKN200
     FM300900 31004KT P6SM VCTS BKN040CB OVC250
     FM301200 02005KT P6SM VCTS BKN040CB OVC250
      TEMPO 3016/3020 VRB15G25KT 4SM TSRA BKN040CB=

USA.gov is the U.S. government's official web portal to all federal, state and local government web resources and services.